Time;durP1;ratioP1;P1;durP2;ratioP2;P2;SDS_P1;SDS_P2;PMS_P1;PMS_P2;Temp;Humidity;BMP_temperature;BMP_pressure;BME280_temperature;BME280_humidity;BME280_pressure;Samples;Min_cycle;Max_cycle;Signal;HPM_P1;HPM_P2
2022/11/18 00:00:29;;;;;;;40.37;22.77;;;;;;;;;;5051962;28;20049;-66
2022/11/18 00:02:55;;;;;;;41.17;22.87;;;;;;;;;;5067599;28;20064;-66
2022/11/18 00:05:21;;;;;;;39.60;22.43;;;;;;;;;;5066197;28;20514;-66
2022/11/18 00:07:47;;;;;;;45.53;24.50;;;;;;;;;;5051345;28;20045;-66
2022/11/18 00:10:13;;;;;;;50.97;24.27;;;;;;;;;;5051687;28;20147;-66
2022/11/18 00:15:24;;;;;;;47.77;25.63;;;;;;;;;;5070179;28;20049;-66
2022/11/18 00:17:50;;;;;;;36.97;22.23;;;;;;;;;;5071129;28;20098;-66
2022/11/18 00:20:16;;;;;;;41.50;23.53;;;;;;;;;;5061690;28;20041;-66
2022/11/18 00:22:42;;;;;;;39.57;23.27;;;;;;;;;;5068255;28;20135;-66
2022/11/18 00:25:08;;;;;;;48.83;25.23;;;;;;;;;;5071176;28;20143;-66
2022/11/18 00:27:34;;;;;;;51.63;28.07;;;;;;;;;;5071395;28;20086;-66
2022/11/18 00:30:00;;;;;;;48.50;26.50;;;;;;;;;;5071460;28;20043;-66
2022/11/18 00:32:26;;;;;;;53.33;29.20;;;;;;;;;;5070890;28;20048;-66
2022/11/18 00:34:52;;;;;;;48.37;27.83;;;;;;;;;;5070895;28;20051;-66
2022/11/18 00:37:18;;;;;;;68.90;33.40;;;;;;;;;;5071087;28;20135;-66
2022/11/18 00:39:44;;;;;;;58.50;30.60;;;;;;;;;;5065483;28;20550;-66
2022/11/18 00:44:54;;;;;;;94.80;38.27;;;;;;;;;;5070591;28;20048;-66
2022/11/18 00:47:20;;;;;;;72.53;35.47;;;;;;;;;;5069215;28;20520;-66
2022/11/18 00:49:46;;;;;;;98.13;37.33;;;;;;;;;;5055338;28;20056;-66
2022/11/18 00:52:12;;;;;;;101.97;41.47;;;;;;;;;;5050918;28;20049;-66
2022/11/18 00:54:38;;;;;;;108.27;43.30;;;;;;;;;;5050217;28;20552;-66
2022/11/18 00:57:04;;;;;;;144.40;49.30;;;;;;;;;;5035684;28;20087;-66
2022/11/18 00:59:30;;;;;;;140.13;47.37;;;;;;;;;;5061586;28;20049;-66
2022/11/18 01:01:56;;;;;;;133.53;45.63;;;;;;;;;;5054715;28;20079;-66
2022/11/18 01:04:23;;;;;;;156.57;50.97;;;;;;;;;;5061428;28;20068;-66
2022/11/18 01:06:49;;;;;;;147.43;49.33;;;;;;;;;;5068580;28;20538;-66
2022/11/18 01:09:15;;;;;;;155.30;49.07;;;;;;;;;;5069701;28;20049;-66
2022/11/18 01:14:25;;;;;;;153.77;51.33;;;;;;;;;;5052871;28;20096;-66
2022/11/18 01:16:57;;;;;;;153.00;50.50;;;;;;;;;;5053134;28;20485;-66
2022/11/18 01:19:24;;;;;;;176.13;51.63;;;;;;;;;;5063282;28;20101;-66
2022/11/18 01:21:50;;;;;;;154.13;49.10;;;;;;;;;;5052197;28;20119;-66
2022/11/18 01:24:16;;;;;;;155.60;51.47;;;;;;;;;;5061977;28;20546;-66
2022/11/18 01:26:42;;;;;;;155.23;49.43;;;;;;;;;;5051561;28;20132;-66
2022/11/18 01:29:08;;;;;;;151.43;47.63;;;;;;;;;;5068620;28;20438;-66
2022/11/18 01:31:34;;;;;;;119.37;47.50;;;;;;;;;;5063788;28;20051;-66
2022/11/18 01:34:00;;;;;;;137.63;47.50;;;;;;;;;;5056005;28;20045;-66
2022/11/18 01:36:27;;;;;;;129.10;46.50;;;;;;;;;;5049724;28;20053;-66
2022/11/18 01:38:53;;;;;;;109.40;43.63;;;;;;;;;;5066420;28;20040;-66
2022/11/18 01:41:21;;;;;;;142.37;46.93;;;;;;;;;;5049285;28;20041;-66
2022/11/18 01:44:00;;;;;;;126.03;46.07;;;;;;;;;;5050373;28;20072;-66
2022/11/18 01:46:31;;;;;;;118.17;42.43;;;;;;;;;;5051221;28;20040;-66
2022/11/18 01:49:07;;;;;;;146.43;47.23;;;;;;;;;;5049264;28;20045;-66
2022/11/18 01:51:37;;;;;;;129.27;43.93;;;;;;;;;;5059177;28;20122;-66
2022/11/18 01:54:05;;;;;;;143.13;46.53;;;;;;;;;;5068896;28;20405;-66
2022/11/18 01:56:34;;;;;;;141.30;46.57;;;;;;;;;;5054546;28;20179;-66
2022/11/18 01:59:02;;;;;;;154.97;48.80;;;;;;;;;;5050557;28;20060;-66
2022/11/18 02:01:28;;;;;;;129.80;46.47;;;;;;;;;;5052557;28;20078;-66
2022/11/18 02:03:55;;;;;;;132.10;46.27;;;;;;;;;;5069531;28;20091;-66
2022/11/18 02:06:21;;;;;;;118.00;43.53;;;;;;;;;;5058581;28;20130;-66
2022/11/18 02:08:48;;;;;;;134.10;46.13;;;;;;;;;;5048802;28;20051;-66
2022/11/18 02:14:01;;;;;;;119.10;44.40;;;;;;;;;;5068553;28;20044;-66
2022/11/18 02:16:34;;;;;;;144.63;48.50;;;;;;;;;;5055647;28;20083;-66
2022/11/18 02:19:01;;;;;;;180.70;53.30;;;;;;;;;;5066508;28;20036;-66
2022/11/18 02:21:51;;;;;;;131.57;45.43;;;;;;;;;;5055061;28;20053;-66
2022/11/18 02:24:36;;;;;;;134.17;44.97;;;;;;;;;;5049225;28;20556;-66
2022/11/18 02:27:20;;;;;;;143.43;46.30;;;;;;;;;;5055806;28;20377;-66
2022/11/18 02:29:56;;;;;;;158.00;49.17;;;;;;;;;;5048458;28;20044;-66
2022/11/18 02:32:25;;;;;;;154.97;47.40;;;;;;;;;;5060488;28;20049;-66
2022/11/18 02:34:57;;;;;;;151.80;47.90;;;;;;;;;;5049005;28;20055;-66
2022/11/18 02:37:34;;;;;;;147.23;47.40;;;;;;;;;;5068587;28;20145;-66
2022/11/18 02:40:13;;;;;;;172.30;50.30;;;;;;;;;;5068230;28;20040;-66
2022/11/18 02:42:40;;;;;;;150.97;51.77;;;;;;;;;;5065192;28;20095;-66
2022/11/18 02:45:08;;;;;;;179.37;52.53;;;;;;;;;;5047157;28;20376;-66
2022/11/18 02:47:35;;;;;;;139.33;46.37;;;;;;;;;;5048936;28;20041;-66
2022/11/18 02:50:04;;;;;;;202.03;55.50;;;;;;;;;;5050742;28;20437;-66
2022/11/18 02:52:31;;;;;;;178.80;51.23;;;;;;;;;;5047698;28;20450;-66
2022/11/18 02:54:58;;;;;;;191.53;55.17;;;;;;;;;;5048927;28;20411;-66
2022/11/18 02:57:25;;;;;;;159.97;51.23;;;;;;;;;;5053454;28;20044;-66
2022/11/18 02:59:51;;;;;;;144.43;48.30;;;;;;;;;;5054783;28;20490;-66
2022/11/18 03:02:17;;;;;;;139.50;46.53;;;;;;;;;;5059435;28;20048;-66
2022/11/18 03:04:46;;;;;;;171.53;53.30;;;;;;;;;;5060290;28;20049;-66
2022/11/18 03:07:17;;;;;;;175.70;52.97;;;;;;;;;;5049213;28;20456;-66
2022/11/18 03:09:44;;;;;;;174.67;53.63;;;;;;;;;;5049532;28;20086;-66
2022/11/18 03:12:31;;;;;;;161.83;51.60;;;;;;;;;;5064426;28;20044;-66
2022/11/18 03:14:57;;;;;;;146.23;49.20;;;;;;;;;;5046671;28;20141;-66
2022/11/18 03:17:28;;;;;;;146.37;49.57;;;;;;;;;;5047335;28;20084;-66
2022/11/18 03:20:03;;;;;;;144.23;49.47;;;;;;;;;;5060919;28;20102;-66
2022/11/18 03:22:37;;;;;;;155.73;51.13;;;;;;;;;;5050443;28;20049;-66
2022/11/18 03:25:05;;;;;;;142.98;49.42;;;;;;;;;;5052406;28;20033;-66
2022/11/18 03:27:34;;;;;;;146.90;50.20;;;;;;;;;;5055056;28;20045;-66
2022/11/18 03:30:11;;;;;;;139.27;50.07;;;;;;;;;;5072041;28;20487;-66
2022/11/18 03:32:39;;;;;;;144.97;51.17;;;;;;;;;;5060770;28;20388;-66
2022/11/18 03:35:07;;;;;;;118.43;44.83;;;;;;;;;;5053382;28;20041;-66
2022/11/18 03:37:34;;;;;;;123.43;46.13;;;;;;;;;;5071294;28;20574;-66
2022/11/18 03:40:04;;;;;;;136.00;46.73;;;;;;;;;;5071516;28;20040;-66
2022/11/18 03:42:40;;;;;;;134.63;49.13;;;;;;;;;;5071935;28;20090;-66
2022/11/18 03:45:12;;;;;;;127.13;45.87;;;;;;;;;;5071448;28;20056;-66
2022/11/18 03:47:43;;;;;;;129.80;47.37;;;;;;;;;;5070630;28;20068;-66
2022/11/18 03:50:13;;;;;;;121.87;46.87;;;;;;;;;;5070029;28;20045;-66
2022/11/18 03:52:40;;;;;;;138.70;48.63;;;;;;;;;;5053686;28;20124;-66
2022/11/18 03:55:11;;;;;;;129.10;47.40;;;;;;;;;;5051887;28;20415;-66
2022/11/18 03:57:46;;;;;;;141.57;51.47;;;;;;;;;;5051463;28;20049;-66
2022/11/18 04:00:13;;;;;;;151.30;51.43;;;;;;;;;;5054149;28;20049;-67
2022/11/18 04:02:39;;;;;;;135.80;49.93;;;;;;;;;;5057736;28;20059;-66
2022/11/18 04:05:07;;;;;;;137.20;50.47;;;;;;;;;;5053573;28;20041;-66
2022/11/18 04:07:55;;;;;;;124.07;45.40;;;;;;;;;;5071996;28;20036;-66
2022/11/18 04:10:21;;;;;;;136.13;49.57;;;;;;;;;;5066585;28;20147;-66
2022/11/18 04:13:05;;;;;;;165.30;53.20;;;;;;;;;;5050533;28;20414;-67
2022/11/18 04:15:32;;;;;;;168.87;56.07;;;;;;;;;;5050218;28;20053;-66
2022/11/18 04:17:58;;;;;;;143.37;51.17;;;;;;;;;;5051400;28;20072;-66
2022/11/18 04:20:24;;;;;;;153.83;53.20;;;;;;;;;;5051338;28;20097;-67
2022/11/18 04:22:50;;;;;;;141.77;50.67;;;;;;;;;;5051955;28;20474;-67
2022/11/18 04:25:16;;;;;;;171.77;55.13;;;;;;;;;;5065112;28;20133;-67
2022/11/18 04:27:42;;;;;;;173.03;54.10;;;;;;;;;;5053580;28;20045;-67
2022/11/18 04:30:09;;;;;;;148.30;51.50;;;;;;;;;;5054197;28;20053;-68
2022/11/18 04:32:35;;;;;;;140.07;48.77;;;;;;;;;;5034090;28;20045;-66
2022/11/18 04:35:01;;;;;;;167.87;53.63;;;;;;;;;;5051010;28;20056;-67
2022/11/18 04:37:27;;;;;;;147.70;50.30;;;;;;;;;;5053811;28;20426;-67
2022/11/18 04:39:53;;;;;;;138.60;51.97;;;;;;;;;;5066098;28;20115;-66
2022/11/18 04:42:19;;;;;;;129.53;47.13;;;;;;;;;;5051126;28;20106;-66
2022/11/18 04:44:45;;;;;;;142.27;50.60;;;;;;;;;;5066632;28;20388;-66
2022/11/18 04:47:11;;;;;;;149.90;52.37;;;;;;;;;;5051803;28;20049;-66
2022/11/18 04:49:37;;;;;;;119.30;47.67;;;;;;;;;;5050420;28;20376;-67
2022/11/18 04:52:04;;;;;;;129.93;48.13;;;;;;;;;;5051245;28;20052;-66
2022/11/18 04:54:30;;;;;;;172.90;52.67;;;;;;;;;;5052391;28;20045;-66
2022/11/18 04:56:56;;;;;;;155.63;51.77;;;;;;;;;;5066176;28;20049;-66
2022/11/18 04:59:27;;;;;;;177.53;54.47;;;;;;;;;;5062592;28;20049;-67
2022/11/18 05:01:53;;;;;;;141.30;49.57;;;;;;;;;;5055526;28;20052;-65
2022/11/18 05:04:20;;;;;;;179.17;53.53;;;;;;;;;;5050659;28;20052;-65
2022/11/18 05:06:47;;;;;;;163.03;54.17;;;;;;;;;;5069513;28;20543;-65
2022/11/18 05:09:13;;;;;;;134.37;47.73;;;;;;;;;;5068737;28;20033;-65
2022/11/18 05:14:26;;;;;;;142.27;47.93;;;;;;;;;;5050004;28;21088;-64
2022/11/18 05:16:53;;;;;;;144.60;49.67;;;;;;;;;;5062534;28;20517;-65
2022/11/18 05:19:19;;;;;;;139.10;47.20;;;;;;;;;;5057833;28;20037;-65
2022/11/18 05:21:45;;;;;;;180.37;54.27;;;;;;;;;;5070069;28;20044;-65
2022/11/18 05:24:11;;;;;;;182.70;53.90;;;;;;;;;;5068811;28;20432;-65
2022/11/18 05:26:37;;;;;;;137.70;51.10;;;;;;;;;;5069691;28;20048;-65
2022/11/18 05:29:03;;;;;;;131.67;49.07;;;;;;;;;;5069943;28;20049;-65
2022/11/18 05:31:29;;;;;;;170.77;52.60;;;;;;;;;;5066267;28;20071;-65
2022/11/18 05:33:55;;;;;;;157.63;51.00;;;;;;;;;;5064725;28;20129;-65
2022/11/18 05:36:22;;;;;;;163.47;51.97;;;;;;;;;;5065360;28;20040;-65
2022/11/18 05:38:48;;;;;;;152.97;51.40;;;;;;;;;;5058773;28;20041;-65
2022/11/18 05:44:00;;;;;;;172.10;53.33;;;;;;;;;;5054615;28;20040;-65
2022/11/18 05:46:26;;;;;;;164.57;52.93;;;;;;;;;;5064854;28;20101;-65
2022/11/18 05:48:52;;;;;;;144.23;50.10;;;;;;;;;;5067885;28;20184;-65
2022/11/18 05:51:18;;;;;;;143.07;48.03;;;;;;;;;;5069550;28;20091;-65
2022/11/18 05:53:44;;;;;;;199.23;56.87;;;;;;;;;;5069411;28;20520;-65
2022/11/18 05:56:29;;;;;;;152.83;49.40;;;;;;;;;;5068926;28;20044;-65
2022/11/18 05:58:55;;;;;;;140.10;46.67;;;;;;;;;;5062755;28;20094;-65
2022/11/18 06:01:27;;;;;;;150.17;48.90;;;;;;;;;;5056945;28;20043;-65
2022/11/18 06:03:53;;;;;;;174.00;51.00;;;;;;;;;;5068825;28;20091;-65
2022/11/18 06:06:21;;;;;;;167.93;52.93;;;;;;;;;;5056816;28;20040;-65
2022/11/18 06:08:51;;;;;;;153.03;51.17;;;;;;;;;;5047731;28;20539;-65
2022/11/18 06:11:18;;;;;;;158.57;52.00;;;;;;;;;;5047680;28;20576;-65
2022/11/18 06:13:56;;;;;;;156.67;50.83;;;;;;;;;;5047394;28;20057;-65
2022/11/18 06:16:25;;;;;;;170.47;52.27;;;;;;;;;;5046011;28;20052;-65
2022/11/18 06:18:51;;;;;;;161.37;51.03;;;;;;;;;;5047678;28;20596;-65
2022/11/18 06:21:17;;;;;;;149.60;49.30;;;;;;;;;;5048590;28;20059;-65
2022/11/18 06:23:43;;;;;;;172.70;51.80;;;;;;;;;;5049206;28;20052;-65
2022/11/18 06:26:11;;;;;;;171.60;53.03;;;;;;;;;;5054655;28;20053;-65
2022/11/18 06:28:37;;;;;;;146.37;49.10;;;;;;;;;;5069043;28;20052;-65
2022/11/18 06:31:03;;;;;;;158.40;50.23;;;;;;;;;;5068942;28;20089;-65
2022/11/18 06:33:29;;;;;;;159.50;50.93;;;;;;;;;;5067617;28;20053;-65
2022/11/18 06:35:55;;;;;;;132.70;47.13;;;;;;;;;;5067250;28;20149;-65
2022/11/18 06:38:23;;;;;;;139.50;47.87;;;;;;;;;;5068773;28;20045;-65
2022/11/18 06:40:49;;;;;;;110.67;40.47;;;;;;;;;;5063427;28;20040;-65
2022/11/18 06:48:45;;;;;;;110.97;41.60;;;;;;;;;;5048810;28;20112;-65
2022/11/18 06:51:11;;;;;;;119.73;42.63;;;;;;;;;;5046971;28;20088;-65
2022/11/18 06:53:37;;;;;;;97.30;39.93;;;;;;;;;;5048598;28;20056;-65
2022/11/18 06:56:04;;;;;;;120.00;42.37;;;;;;;;;;5048042;28;20421;-65
2022/11/18 06:58:30;;;;;;;124.00;43.83;;;;;;;;;;5048374;28;20535;-65
2022/11/18 07:00:56;;;;;;;149.20;45.90;;;;;;;;;;5046943;28;20049;-65
2022/11/18 07:03:22;;;;;;;127.00;42.90;;;;;;;;;;5048518;28;20045;-65
2022/11/18 07:05:48;;;;;;;105.07;41.13;;;;;;;;;;5048159;28;20056;-65
2022/11/18 07:08:14;;;;;;;123.83;42.50;;;;;;;;;;5048351;28;20049;-65
2022/11/18 07:10:40;;;;;;;167.70;51.90;;;;;;;;;;5048302;28;20056;-65
2022/11/18 07:13:06;;;;;;;121.93;44.30;;;;;;;;;;5047826;28;20144;-65
2022/11/18 07:15:33;;;;;;;180.17;48.40;;;;;;;;;;5048265;28;20064;-65
2022/11/18 07:17:59;;;;;;;124.33;42.63;;;;;;;;;;5048020;28;20044;-65
2022/11/18 07:20:25;;;;;;;120.97;40.73;;;;;;;;;;5048056;28;20056;-65
2022/11/18 07:22:52;;;;;;;144.40;44.97;;;;;;;;;;5047752;28;20037;-65
2022/11/18 07:25:19;;;;;;;143.60;43.37;;;;;;;;;;5056207;28;20116;-65
2022/11/18 07:27:46;;;;;;;124.70;43.27;;;;;;;;;;5048023;28;20510;-65
2022/11/18 07:30:12;;;;;;;102.93;37.03;;;;;;;;;;5048080;28;20096;-65
2022/11/18 07:32:38;;;;;;;85.43;35.83;;;;;;;;;;5048140;28;20522;-65
2022/11/18 07:35:04;;;;;;;92.97;37.17;;;;;;;;;;5047397;28;20064;-65
2022/11/18 07:37:30;;;;;;;97.43;36.70;;;;;;;;;;5047882;28;20049;-65
2022/11/18 07:39:58;;;;;;;101.13;37.20;;;;;;;;;;5047564;28;20054;-65
2022/11/18 07:42:24;;;;;;;108.90;37.00;;;;;;;;;;5047449;28;20555;-65
2022/11/18 07:44:50;;;;;;;135.73;39.30;;;;;;;;;;5046275;28;20072;-65
2022/11/18 07:47:16;;;;;;;102.03;36.07;;;;;;;;;;5046526;28;20107;-65
2022/11/18 07:49:43;;;;;;;84.97;33.73;;;;;;;;;;5047258;28;20049;-65
2022/11/18 07:52:09;;;;;;;113.87;35.43;;;;;;;;;;5047496;28;20049;-65
2022/11/18 07:54:35;;;;;;;86.90;33.53;;;;;;;;;;5047698;28;20045;-64
2022/11/18 07:57:01;;;;;;;81.33;31.47;;;;;;;;;;5047248;28;20136;-65
2022/11/18 07:59:27;;;;;;;83.17;30.67;;;;;;;;;;5046097;28;20052;-65
2022/11/18 08:01:53;;;;;;;109.93;34.20;;;;;;;;;;5047308;28;20499;-64
2022/11/18 08:04:19;;;;;;;82.73;29.90;;;;;;;;;;5045929;28;20495;-64
2022/11/18 08:06:45;;;;;;;93.10;31.37;;;;;;;;;;5046075;28;20128;-65
2022/11/18 08:09:11;;;;;;;75.10;28.30;;;;;;;;;;5049961;28;20580;-65
2022/11/18 08:11:37;;;;;;;77.27;29.10;;;;;;;;;;5049954;28;20056;-65
2022/11/18 08:14:03;;;;;;;66.10;25.80;;;;;;;;;;5049674;28;20068;-65
2022/11/18 08:16:30;;;;;;;70.43;28.03;;;;;;;;;;5050738;28;20773;-65
2022/11/18 08:18:57;;;;;;;63.77;25.80;;;;;;;;;;5050816;28;20047;-65
2022/11/18 08:21:23;;;;;;;57.47;24.03;;;;;;;;;;5052033;28;20052;-65
2022/11/18 08:23:51;;;;;;;65.03;26.40;;;;;;;;;;5053784;28;20053;-65
2022/11/18 08:26:17;;;;;;;63.80;25.90;;;;;;;;;;5053908;28;20091;-65
2022/11/18 08:28:44;;;;;;;82.20;28.70;;;;;;;;;;5064012;28;20128;-65
2022/11/18 08:31:10;;;;;;;70.03;27.50;;;;;;;;;;5057589;28;20154;-64
2022/11/18 08:33:36;;;;;;;65.40;27.90;;;;;;;;;;5070161;28;20418;-65
2022/11/18 08:36:15;;;;;;;85.37;29.43;;;;;;;;;;5069829;28;20490;-65
2022/11/18 08:38:41;;;;;;;59.30;24.10;;;;;;;;;;5069470;28;20048;-65
2022/11/18 08:41:07;;;;;;;80.90;28.10;;;;;;;;;;5060723;28;20051;-65
2022/11/18 08:43:35;;;;;;;65.43;24.30;;;;;;;;;;5049990;28;20049;-65
2022/11/18 08:46:01;;;;;;;69.73;26.33;;;;;;;;;;5068572;28;20186;-65
2022/11/18 08:48:27;;;;;;;87.67;28.17;;;;;;;;;;5068211;28;20135;-65
2022/11/18 08:50:53;;;;;;;70.60;25.27;;;;;;;;;;5069275;28;20410;-65
2022/11/18 08:53:19;;;;;;;86.87;28.23;;;;;;;;;;5056569;28;20087;-65
2022/11/18 08:55:45;;;;;;;61.90;23.30;;;;;;;;;;5057826;28;20052;-65
2022/11/18 08:58:11;;;;;;;71.57;24.23;;;;;;;;;;5069868;28;20372;-65
2022/11/18 09:00:37;;;;;;;61.23;23.37;;;;;;;;;;5070397;28;20087;-65
2022/11/18 09:03:04;;;;;;;73.03;25.93;;;;;;;;;;5069699;28;20044;-65
2022/11/18 09:05:30;;;;;;;77.17;26.73;;;;;;;;;;5070301;28;20392;-65
2022/11/18 09:07:56;;;;;;;59.57;23.30;;;;;;;;;;5068586;28;20060;-65
2022/11/18 09:10:22;;;;;;;71.20;26.97;;;;;;;;;;5069960;28;20048;-65
2022/11/18 09:12:48;;;;;;;66.27;26.13;;;;;;;;;;5069721;28;20557;-65
2022/11/18 09:15:14;;;;;;;83.33;28.33;;;;;;;;;;5068686;28;20056;-65
2022/11/18 09:17:40;;;;;;;83.00;28.63;;;;;;;;;;5069144;28;20049;-65
2022/11/18 09:20:06;;;;;;;73.27;26.43;;;;;;;;;;5062686;28;20072;-65
2022/11/18 09:22:35;;;;;;;61.73;24.87;;;;;;;;;;5049658;28;20140;-65
2022/11/18 09:25:01;;;;;;;61.47;25.40;;;;;;;;;;5049379;28;20080;-65
2022/11/18 09:27:27;;;;;;;82.23;27.20;;;;;;;;;;5049578;28;20068;-65
2022/11/18 09:29:53;;;;;;;74.50;26.90;;;;;;;;;;5049560;28;20463;-65
2022/11/18 09:32:19;;;;;;;96.10;30.00;;;;;;;;;;5047712;28;20045;-65
2022/11/18 09:34:45;;;;;;;99.80;30.53;;;;;;;;;;5054899;28;20051;-65
2022/11/18 09:37:11;;;;;;;90.00;29.73;;;;;;;;;;5069309;28;20415;-65
2022/11/18 09:39:37;;;;;;;75.27;28.00;;;;;;;;;;5069036;28;20084;-65
2022/11/18 09:42:15;;;;;;;72.57;26.83;;;;;;;;;;5069071;28;20539;-65
2022/11/18 09:44:50;;;;;;;52.63;21.73;;;;;;;;;;5067900;28;20060;-65
2022/11/18 09:47:22;;;;;;;59.47;22.53;;;;;;;;;;5064804;28;20056;-65
2022/11/18 09:49:48;;;;;;;51.13;20.37;;;;;;;;;;5069084;28;20084;-65
2022/11/18 09:52:17;;;;;;;63.83;22.73;;;;;;;;;;5069174;28;20059;-65
2022/11/18 09:54:43;;;;;;;66.33;23.57;;;;;;;;;;5069068;28;20051;-65
2022/11/18 09:57:17;;;;;;;49.97;20.77;;;;;;;;;;5068978;28;20404;-65
2022/11/18 09:59:43;;;;;;;64.03;22.83;;;;;;;;;;5068437;28;20403;-65
2022/11/18 10:02:15;;;;;;;44.87;17.60;;;;;;;;;;5068769;28;20532;-65
2022/11/18 10:04:41;;;;;;;46.20;18.30;;;;;;;;;;5068864;28;20109;-65
2022/11/18 10:07:15;;;;;;;35.37;16.53;;;;;;;;;;5068596;28;20064;-65
2022/11/18 10:09:41;;;;;;;58.20;20.60;;;;;;;;;;5068970;28;20043;-65
2022/11/18 10:12:19;;;;;;;49.17;18.80;;;;;;;;;;5067330;28;20048;-65
2022/11/18 10:14:53;;;;;;;43.73;17.23;;;;;;;;;;5067868;28;20127;-65
2022/11/18 10:17:40;;;;;;;43.70;18.90;;;;;;;;;;5068831;28;20048;-65
2022/11/18 10:20:12;;;;;;;55.43;21.37;;;;;;;;;;5068126;28;20498;-65
2022/11/18 10:23:13;;;;;;;56.73;21.73;;;;;;;;;;5068755;28;20045;-65
2022/11/18 10:25:39;;;;;;;46.33;20.87;;;;;;;;;;5046132;28;20434;-64
2022/11/18 10:28:17;;;;;;;56.83;22.60;;;;;;;;;;5062513;28;20581;-65
2022/11/18 10:30:43;;;;;;;51.33;21.33;;;;;;;;;;5047738;28;20044;-65
2022/11/18 10:33:21;;;;;;;47.10;21.67;;;;;;;;;;5047293;28;20102;-65
2022/11/18 10:35:48;;;;;;;47.43;21.03;;;;;;;;;;5048102;28;20045;-64
2022/11/18 10:38:14;;;;;;;43.87;20.23;;;;;;;;;;5048338;28;20045;-65
2022/11/18 10:40:43;;;;;;;47.67;19.30;;;;;;;;;;5048251;28;20098;-65
2022/11/18 10:43:10;;;;;;;37.40;19.10;;;;;;;;;;5050209;28;20044;-65
2022/11/18 10:45:36;;;;;;;43.73;19.53;;;;;;;;;;5068273;28;20086;-65
2022/11/18 10:48:14;;;;;;;50.00;21.10;;;;;;;;;;5068405;28;20072;-65
2022/11/18 10:50:44;;;;;;;47.97;21.87;;;;;;;;;;5068243;28;20428;-65
2022/11/18 10:53:29;;;;;;;52.10;22.03;;;;;;;;;;5068038;28;20045;-64
2022/11/18 10:56:08;;;;;;;57.87;24.70;;;;;;;;;;5067737;28;20079;-65
2022/11/18 10:58:36;;;;;;;53.10;23.23;;;;;;;;;;5068028;28;20609;-64
2022/11/18 11:01:28;;;;;;;45.77;22.43;;;;;;;;;;5068002;28;20049;-64
2022/11/18 11:04:04;;;;;;;57.53;23.50;;;;;;;;;;5048198;28;20145;-64
2022/11/18 11:06:36;;;;;;;48.70;22.93;;;;;;;;;;5067818;28;20048;-65
2022/11/18 11:09:14;;;;;;;57.23;24.70;;;;;;;;;;5066580;28;20520;-65
2022/11/18 11:11:44;;;;;;;51.87;23.47;;;;;;;;;;5068085;28;20053;-64
2022/11/18 11:14:20;;;;;;;46.43;21.43;;;;;;;;;;5052896;28;20220;-64
2022/11/18 11:17:01;;;;;;;60.00;24.87;;;;;;;;;;5046321;28;20122;-65
2022/11/18 11:19:33;;;;;;;64.20;31.63;;;;;;;;;;5054952;28;20797;-65
2022/11/18 11:21:59;;;;;;;54.20;24.17;;;;;;;;;;5059711;28;20041;-65
2022/11/18 11:24:27;;;;;;;58.67;28.03;;;;;;;;;;5048323;28;20049;-65
2022/11/18 11:27:05;;;;;;;41.57;19.40;;;;;;;;;;5049212;28;20119;-65
2022/11/18 11:29:42;;;;;;;58.17;28.80;;;;;;;;;;5055508;28;20403;-65
2022/11/18 11:32:17;;;;;;;35.77;17.93;;;;;;;;;;5067683;28;20037;-65
2022/11/18 11:34:57;;;;;;;33.97;18.97;;;;;;;;;;5060715;28;20569;-65
2022/11/18 11:37:29;;;;;;;35.67;22.40;;;;;;;;;;5067725;28;20056;-65
2022/11/18 11:40:04;;;;;;;27.40;14.33;;;;;;;;;;5067772;28;20465;-65
2022/11/18 11:42:37;;;;;;;24.13;13.07;;;;;;;;;;5068474;28;20048;-65
2022/11/18 11:45:15;;;;;;;24.40;13.17;;;;;;;;;;5068088;28;20052;-65
2022/11/18 11:47:55;;;;;;;27.67;14.87;;;;;;;;;;5054694;28;20041;-65
2022/11/18 11:50:25;;;;;;;24.67;13.60;;;;;;;;;;5064234;28;20056;-65
2022/11/18 11:53:01;;;;;;;22.03;13.03;;;;;;;;;;5062284;28;20128;-65
2022/11/18 11:55:45;;;;;;;28.00;14.13;;;;;;;;;;5066788;28;20041;-65
2022/11/18 11:58:14;;;;;;;18.60;12.30;;;;;;;;;;5069363;28;20048;-65
2022/11/18 12:00:44;;;;;;;22.03;11.87;;;;;;;;;;5071428;28;20124;-65
2022/11/18 12:03:13;;;;;;;20.33;11.57;;;;;;;;;;5062127;28;20044;-65
2022/11/18 12:05:41;;;;;;;21.87;11.40;;;;;;;;;;5069233;28;20049;-65
2022/11/18 12:08:20;;;;;;;20.33;11.53;;;;;;;;;;5054934;28;20044;-65
2022/11/18 12:11:13;;;;;;;19.20;10.30;;;;;;;;;;5069960;28;20049;-65
2022/11/18 12:13:45;;;;;;;22.27;11.43;;;;;;;;;;5067635;28;20052;-65
2022/11/18 12:16:17;;;;;;;20.13;10.60;;;;;;;;;;5068414;28;20541;-65
2022/11/18 12:18:53;;;;;;;18.70;10.67;;;;;;;;;;5062967;28;20037;-65
2022/11/18 12:21:38;;;;;;;21.23;10.70;;;;;;;;;;5069704;28;20053;-65
2022/11/18 12:24:23;;;;;;;16.20;10.17;;;;;;;;;;5068577;28;20271;-65
2022/11/18 12:26:50;;;;;;;18.97;9.37;;;;;;;;;;5068880;28;20048;-65
2022/11/18 12:29:19;;;;;;;17.17;10.30;;;;;;;;;;5065660;28;20040;-65
2022/11/18 12:31:55;;;;;;;19.63;10.43;;;;;;;;;;5061189;28;20048;-65
2022/11/18 12:34:29;;;;;;;15.20;8.70;;;;;;;;;;5070036;28;20520;-65
2022/11/18 12:36:55;;;;;;;17.20;9.97;;;;;;;;;;5050648;28;20469;-65
2022/11/18 12:39:24;;;;;;;16.73;10.47;;;;;;;;;;5066161;28;20049;-65
2022/11/18 12:44:40;;;;;;;19.07;10.10;;;;;;;;;;5068625;28;20088;-64
2022/11/18 12:47:07;;;;;;;19.30;9.87;;;;;;;;;;5068311;28;20040;-64
2022/11/18 12:49:33;;;;;;;16.17;9.17;;;;;;;;;;5070781;28;20037;-65
2022/11/18 12:52:00;;;;;;;19.67;9.00;;;;;;;;;;5068888;28;20048;-65
2022/11/18 12:54:29;;;;;;;18.67;10.60;;;;;;;;;;5063387;28;20045;-65
2022/11/18 12:56:57;;;;;;;18.10;9.50;;;;;;;;;;5056656;28;20366;-65
2022/11/18 12:59:49;;;;;;;18.50;10.70;;;;;;;;;;5057284;28;20461;-64
2022/11/18 13:02:19;;;;;;;25.33;12.07;;;;;;;;;;5068101;28;20045;-65
2022/11/18 13:04:46;;;;;;;24.30;11.23;;;;;;;;;;5062715;28;20052;-64
2022/11/18 13:09:58;;;;;;;24.17;12.80;;;;;;;;;;5070271;28;20052;-64
2022/11/18 13:12:26;;;;;;;22.73;11.90;;;;;;;;;;5069821;28;20499;-64
2022/11/18 13:17:53;;;;;;;24.57;12.50;;;;;;;;;;5013056;28;20100;-65
2022/11/18 13:20:34;;;;;;;25.97;12.67;;;;;;;;;;5057512;28;20044;-64
2022/11/18 13:26:02;;;;;;;20.58;11.25;;;;;;;;;;5069033;28;20052;-65
2022/11/18 13:28:36;;;;;;;23.13;12.23;;;;;;;;;;5069151;28;20117;-64
2022/11/18 13:31:07;;;;;;;24.03;12.40;;;;;;;;;;5050396;28;20573;-64
2022/11/18 13:33:35;;;;;;;26.60;12.87;;;;;;;;;;5049866;28;20043;-64
2022/11/18 13:36:01;;;;;;;34.57;15.00;;;;;;;;;;5049940;28;20049;-64
2022/11/18 13:38:27;;;;;;;24.17;13.17;;;;;;;;;;5050313;28;20055;-64
2022/11/18 13:41:03;;;;;;;28.27;13.67;;;;;;;;;;5049595;28;20415;-64
2022/11/18 13:43:30;;;;;;;26.33;13.23;;;;;;;;;;5056764;28;20499;-65
2022/11/18 13:45:58;;;;;;;26.17;12.43;;;;;;;;;;5068367;28;20418;-65
2022/11/18 13:48:24;;;;;;;25.30;13.23;;;;;;;;;;5069959;28;20084;-64
2022/11/18 13:50:53;;;;;;;25.20;13.03;;;;;;;;;;5068595;28;20072;-65
2022/11/18 13:53:34;;;;;;;30.80;13.80;;;;;;;;;;5064910;28;20411;-65
2022/11/18 13:56:02;;;;;;;24.53;13.60;;;;;;;;;;5047463;28;20053;-64
2022/11/18 13:58:41;;;;;;;28.47;13.70;;;;;;;;;;5049820;28;20044;-64
2022/11/18 14:01:19;;;;;;;27.23;12.80;;;;;;;;;;5049583;28;20410;-64
2022/11/18 14:03:49;;;;;;;23.80;11.83;;;;;;;;;;5049345;28;20049;-64
2022/11/18 14:06:34;;;;;;;28.23;12.87;;;;;;;;;;5048877;28;20099;-64
2022/11/18 14:09:15;;;;;;;30.03;13.67;;;;;;;;;;5049358;28;20084;-64
2022/11/18 14:11:42;;;;;;;28.77;14.43;;;;;;;;;;5049573;28;20056;-65
2022/11/18 14:14:13;;;;;;;26.43;13.00;;;;;;;;;;5065245;28;20083;-64
2022/11/18 14:16:41;;;;;;;28.77;14.33;;;;;;;;;;5068958;28;20299;-64
2022/11/18 14:19:12;;;;;;;29.70;13.33;;;;;;;;;;5064939;28;20097;-64
2022/11/18 14:21:38;;;;;;;26.50;13.17;;;;;;;;;;5069256;28;20044;-65
2022/11/18 14:24:04;;;;;;;33.17;14.17;;;;;;;;;;5069128;28;20433;-64
2022/11/18 14:26:30;;;;;;;33.97;14.37;;;;;;;;;;5040541;28;20122;-65
2022/11/18 14:29:01;;;;;;;29.30;13.93;;;;;;;;;;5049213;28;20065;-64
2022/11/18 14:31:29;;;;;;;28.00;15.37;;;;;;;;;;5053758;28;20036;-65
2022/11/18 14:34:13;;;;;;;27.17;12.97;;;;;;;;;;5069089;28;20299;-64
2022/11/18 14:36:39;;;;;;;27.57;13.80;;;;;;;;;;5069042;28;20406;-64
2022/11/18 14:39:12;;;;;;;27.13;12.67;;;;;;;;;;5067140;28;20533;-64
2022/11/18 14:41:47;;;;;;;22.85;12.98;;;;;;;;;;5050933;28;20167;-64
2022/11/18 14:44:14;;;;;;;27.83;14.20;;;;;;;;;;5048701;28;20041;-64
2022/11/18 14:46:40;;;;;;;27.93;14.47;;;;;;;;;;5047786;28;20360;-65
2022/11/18 14:49:12;;;;;;;28.73;13.33;;;;;;;;;;5048982;28;20055;-65
2022/11/18 14:51:38;;;;;;;33.27;15.27;;;;;;;;;;5048632;28;20052;-64
2022/11/18 14:54:04;;;;;;;29.80;14.83;;;;;;;;;;5047566;28;20049;-64
2022/11/18 14:56:31;;;;;;;38.00;16.63;;;;;;;;;;5061568;28;20052;-64